sensor_id;sensor_type;location;lat;lon;timestamp;pressure;altitude;pressure_sealevel;temperature;humidity
20160;BME280;50187;50.492;12.134;2022-09-09T00:00:11;97259.63;;;23.95;47.92
20160;BME280;50187;50.492;12.134;2022-09-09T00:03:13;97265.94;;;23.96;47.81
20160;BME280;50187;50.492;12.134;2022-09-09T00:06:12;97261.72;;;23.93;47.72
20160;BME280;50187;50.492;12.134;2022-09-09T00:09:11;97254.78;;;23.91;47.95
20160;BME280;50187;50.492;12.134;2022-09-09T00:12:17;97261.06;;;23.91;47.79
20160;BME280;50187;50.492;12.134;2022-09-09T00:15:10;97257.72;;;23.89;47.89
20160;BME280;50187;50.492;12.134;2022-09-09T00:21:15;97252.84;;;23.84;48.11
20160;BME280;50187;50.492;12.134;2022-09-09T00:24:11;97248.44;;;23.83;48.08
20160;BME280;50187;50.492;12.134;2022-09-09T00:27:23;97239.63;;;23.81;48.15
20160;BME280;50187;50.492;12.134;2022-09-09T00:30:19;97237.78;;;23.82;48.10
20160;BME280;50187;50.492;12.134;2022-09-09T00:33:12;97233.38;;;23.81;48.20
20160;BME280;50187;50.492;12.134;2022-09-09T00:36:00;97232.53;;;23.80;48.19
20160;BME280;50187;50.492;12.134;2022-09-09T00:38:52;97231.66;;;23.80;48.06
20160;BME280;50187;50.492;12.134;2022-09-09T00:41:57;97231.66;;;23.80;48.21
20160;BME280;50187;50.492;12.134;2022-09-09T00:48:01;97232.72;;;23.79;48.19
20160;BME280;50187;50.492;12.134;2022-09-09T00:51:00;97225.59;;;23.78;48.26
20160;BME280;50187;50.492;12.134;2022-09-09T00:57:34;97234.78;;;23.77;48.22
20160;BME280;50187;50.492;12.134;2022-09-09T01:00:31;97246.47;;;23.77;48.12
20160;BME280;50187;50.492;12.134;2022-09-09T01:03:21;97233.94;;;23.76;47.96
20160;BME280;50187;50.492;12.134;2022-09-09T01:06:33;97234.97;;;23.75;48.12
20160;BME280;50187;50.492;12.134;2022-09-09T01:09:40;97234.16;;;23.75;48.11
20160;BME280;50187;50.492;12.134;2022-09-09T01:12:43;97239.78;;;23.73;48.19
20160;BME280;50187;50.492;12.134;2022-09-09T01:15:36;97238.91;;;23.73;48.06
20160;BME280;50187;50.492;12.134;2022-09-09T01:18:27;97248.94;;;23.72;48.08
20160;BME280;50187;50.492;12.134;2022-09-09T01:24:24;97239.31;;;23.70;48.24
20160;BME280;50187;50.492;12.134;2022-09-09T01:27:46;97237.63;;;23.69;48.14
20160;BME280;50187;50.492;12.134;2022-09-09T01:30:35;97225.84;;;23.61;48.12
20160;BME280;50187;50.492;12.134;2022-09-09T01:33:20;97235.94;;;23.67;48.19
20160;BME280;50187;50.492;12.134;2022-09-09T01:36:12;97232.59;;;23.65;48.09
20160;BME280;50187;50.492;12.134;2022-09-09T01:39:08;97229.22;;;23.63;48.35
20160;BME280;50187;50.492;12.134;2022-09-09T01:41:55;97229.88;;;23.65;48.23
20160;BME280;50187;50.492;12.134;2022-09-09T01:44:40;97236.31;;;23.64;48.17
20160;BME280;50187;50.492;12.134;2022-09-09T01:47:25;97229.22;;;23.63;48.33
20160;BME280;50187;50.492;12.134;2022-09-09T01:50:24;97244.66;;;23.63;48.18
20160;BME280;50187;50.492;12.134;2022-09-09T01:53:11;97229.41;;;23.62;48.35
20160;BME280;50187;50.492;12.134;2022-09-09T01:56:05;97231.28;;;23.61;48.20
20160;BME280;50187;50.492;12.134;2022-09-09T02:02:17;97236.72;;;23.61;48.21
20160;BME280;50187;50.492;12.134;2022-09-09T02:08:17;97256.13;;;23.58;48.21
20160;BME280;50187;50.492;12.134;2022-09-09T02:11:16;97245.88;;;23.60;48.21
20160;BME280;50187;50.492;12.134;2022-09-09T02:14:11;97242.53;;;23.58;48.27
20160;BME280;50187;50.492;12.134;2022-09-09T02:17:09;97242.53;;;23.58;48.34
20160;BME280;50187;50.492;12.134;2022-09-09T02:20:18;97258.00;;;23.58;48.22
20160;BME280;50187;50.492;12.134;2022-09-09T02:23:09;97243.56;;;23.57;48.32
20160;BME280;50187;50.492;12.134;2022-09-09T02:25:57;97235.81;;;23.54;48.36
20160;BME280;50187;50.492;12.134;2022-09-09T02:28:43;97248.56;;;23.54;48.31
20160;BME280;50187;50.492;12.134;2022-09-09T02:31:30;97238.72;;;23.53;48.42
20160;BME280;50187;50.492;12.134;2022-09-09T02:34:23;97241.44;;;23.53;48.48
20160;BME280;50187;50.492;12.134;2022-09-09T02:37:09;97247.69;;;23.53;48.22
20160;BME280;50187;50.492;12.134;2022-09-09T02:39:57;97243.31;;;23.52;48.35
20160;BME280;50187;50.492;12.134;2022-09-09T02:42:45;97233.69;;;23.49;48.36
20160;BME280;50187;50.492;12.134;2022-09-09T02:45:41;97233.69;;;23.49;48.31
20160;BME280;50187;50.492;12.134;2022-09-09T02:48:51;97237.03;;;23.52;48.28
20160;BME280;50187;50.492;12.134;2022-09-09T02:51:59;97229.09;;;23.50;48.25
20160;BME280;50187;50.492;12.134;2022-09-09T02:54:49;97232.00;;;23.48;48.37
20160;BME280;50187;50.492;12.134;2022-09-09T02:57:39;97231.16;;;23.48;48.35
20160;BME280;50187;50.492;12.134;2022-09-09T03:00:27;97232.00;;;23.48;48.38
20160;BME280;50187;50.492;12.134;2022-09-09T03:03:17;97229.47;;;23.47;48.34
20160;BME280;50187;50.492;12.134;2022-09-09T03:06:05;97236.31;;;23.43;48.40
20160;BME280;50187;50.492;12.134;2022-09-09T03:08:51;97230.50;;;23.46;48.43
20160;BME280;50187;50.492;12.134;2022-09-09T03:11:41;97227.59;;;23.47;48.50
20160;BME280;50187;50.492;12.134;2022-09-09T03:14:26;97228.81;;;23.45;48.55
20160;BME280;50187;50.492;12.134;2022-09-09T03:17:12;97225.06;;;23.46;48.27
20160;BME280;50187;50.492;12.134;2022-09-09T03:20:05;97230.50;;;23.46;48.34
20160;BME280;50187;50.492;12.134;2022-09-09T03:22:52;97233.41;;;23.44;48.48
20160;BME280;50187;50.492;12.134;2022-09-09T03:25:38;97228.81;;;23.45;48.54
20160;BME280;50187;50.492;12.134;2022-09-09T03:28:24;97222.75;;;23.43;48.54
20160;BME280;50187;50.492;12.134;2022-09-09T03:31:15;97219.00;;;23.44;48.60
20160;BME280;50187;50.492;12.134;2022-09-09T03:34:01;97221.91;;;23.42;48.42
20160;BME280;50187;50.492;12.134;2022-09-09T03:36:50;97219.19;;;23.42;48.30
20160;BME280;50187;50.492;12.134;2022-09-09T03:39:36;97222.75;;;23.43;48.57
20160;BME280;50187;50.492;12.134;2022-09-09T03:42:22;97220.03;;;23.43;48.52
20160;BME280;50187;50.492;12.134;2022-09-09T03:45:10;97220.22;;;23.41;48.49
20160;BME280;50187;50.492;12.134;2022-09-09T03:47:57;97217.69;;;23.40;48.59
20160;BME280;50187;50.492;12.134;2022-09-09T03:50:47;97211.06;;;23.42;48.44
20160;BME280;50187;50.492;12.134;2022-09-09T03:53:33;97203.06;;;23.41;48.37
20160;BME280;50187;50.492;12.134;2022-09-09T03:56:20;97203.06;;;23.41;48.36
20160;BME280;50187;50.492;12.134;2022-09-09T03:59:07;97197.66;;;23.41;48.38
20160;BME280;50187;50.492;12.134;2022-09-09T04:01:54;97200.56;;;23.39;48.58
20160;BME280;50187;50.492;12.134;2022-09-09T04:04:39;97204.97;;;23.40;48.58
20160;BME280;50187;50.492;12.134;2022-09-09T04:07:25;97207.69;;;23.40;48.58
20160;BME280;50187;50.492;12.134;2022-09-09T04:10:13;97199.72;;;23.39;48.36
20160;BME280;50187;50.492;12.134;2022-09-09T04:12:58;97203.47;;;23.38;48.39
20160;BME280;50187;50.492;12.134;2022-09-09T04:15:53;97205.34;;;23.37;48.63
20160;BME280;50187;50.492;12.134;2022-09-09T04:18:39;97198.03;;;23.38;48.45
20160;BME280;50187;50.492;12.134;2022-09-09T04:21:25;97202.63;;;23.37;48.42
20160;BME280;50187;50.492;12.134;2022-09-09T04:24:11;97200.94;;;23.36;48.56
20160;BME280;50187;50.492;12.134;2022-09-09T04:26:56;97205.34;;;23.37;48.55
20160;BME280;50187;50.492;12.134;2022-09-09T04:29:41;97203.03;;;23.34;48.48
20160;BME280;50187;50.492;12.134;2022-09-09T04:32:26;97205.53;;;23.36;48.47
20160;BME280;50187;50.492;12.134;2022-09-09T04:35:12;97205.53;;;23.36;48.59
20160;BME280;50187;50.492;12.134;2022-09-09T04:37:58;97200.31;;;23.34;48.58
20160;BME280;50187;50.492;12.134;2022-09-09T04:40:49;97208.47;;;23.34;48.36
20160;BME280;50187;50.492;12.134;2022-09-09T04:43:35;97206.38;;;23.36;48.52
20160;BME280;50187;50.492;12.134;2022-09-09T04:46:22;97206.56;;;23.35;48.53
20160;BME280;50187;50.492;12.134;2022-09-09T04:49:09;97200.31;;;23.34;48.61
20160;BME280;50187;50.492;12.134;2022-09-09T04:51:59;97198.63;;;23.33;48.46
20160;BME280;50187;50.492;12.134;2022-09-09T04:54:45;97207.59;;;23.33;48.33
20160;BME280;50187;50.492;12.134;2022-09-09T04:57:31;97207.59;;;23.33;48.39
20160;BME280;50187;50.492;12.134;2022-09-09T05:00:17;97200.50;;;23.32;48.37
20160;BME280;50187;50.492;12.134;2022-09-09T05:03:05;97211.16;;;23.34;48.61
20160;BME280;50187;50.492;12.134;2022-09-09T05:05:51;97217.63;;;23.33;48.59
20160;BME280;50187;50.492;12.134;2022-09-09T05:08:39;97215.94;;;23.32;48.64
20160;BME280;50187;50.492;12.134;2022-09-09T05:11:28;97209.69;;;23.31;48.40
20160;BME280;50187;50.492;12.134;2022-09-09T05:14:18;97217.81;;;23.31;48.38
20160;BME280;50187;50.492;12.134;2022-09-09T05:17:04;97225.13;;;23.31;48.59
20160;BME280;50187;50.492;12.134;2022-09-09T05:19:52;97223.25;;;23.31;48.59
20160;BME280;50187;50.492;12.134;2022-09-09T05:22:38;97221.56;;;23.30;48.43
20160;BME280;50187;50.492;12.134;2022-09-09T05:25:23;97220.53;;;23.31;48.36
20160;BME280;50187;50.492;12.134;2022-09-09T05:28:13;97233.44;;;23.29;48.63
20160;BME280;50187;50.492;12.134;2022-09-09T05:31:03;97231.59;;;23.30;48.63
20160;BME280;50187;50.492;12.134;2022-09-09T05:33:51;97231.59;;;23.30;48.66
20160;BME280;50187;50.492;12.134;2022-09-09T05:36:37;97233.44;;;23.29;48.53
20160;BME280;50187;50.492;12.134;2022-09-09T05:39:23;97239.91;;;23.28;48.59
20160;BME280;50187;50.492;12.134;2022-09-09T05:42:09;97242.63;;;23.28;48.41
20160;BME280;50187;50.492;12.134;2022-09-09T05:44:53;97240.09;;;23.27;48.41
20160;BME280;50187;50.492;12.134;2022-09-09T05:47:39;97252.44;;;23.29;48.40
20160;BME280;50187;50.492;12.134;2022-09-09T05:50:28;97248.25;;;23.27;48.64
20160;BME280;50187;50.492;12.134;2022-09-09T05:53:15;97249.28;;;23.26;48.57
20160;BME280;50187;50.492;12.134;2022-09-09T05:56:07;97243.66;;;23.27;48.50
20160;BME280;50187;50.492;12.134;2022-09-09T05:58:56;97247.19;;;23.28;48.66
20160;BME280;50187;50.492;12.134;2022-09-09T06:01:42;97247.19;;;23.28;48.41
20160;BME280;50187;50.492;12.134;2022-09-09T06:04:36;97247.59;;;23.25;48.70
20160;BME280;50187;50.492;12.134;2022-09-09T06:07:22;97255.72;;;23.25;48.39
20160;BME280;50187;50.492;12.134;2022-09-09T06:10:07;97241.97;;;23.26;48.70
20160;BME280;50187;50.492;12.134;2022-09-09T06:12:53;97250.09;;;23.26;48.62
20160;BME280;50187;50.492;12.134;2022-09-09T06:15:39;97259.94;;;23.27;48.47
20160;BME280;50187;50.492;12.134;2022-09-09T06:18:25;97262.84;;;23.26;48.45
20160;BME280;50187;50.492;12.134;2022-09-09T06:21:15;97270.97;;;23.26;48.33
20160;BME280;50187;50.492;12.134;2022-09-09T06:24:02;97251.78;;;23.27;48.64
20160;BME280;50187;50.492;12.134;2022-09-09T06:26:48;97257.03;;;23.29;48.55
20160;BME280;50187;50.492;12.134;2022-09-09T06:29:38;97250.09;;;23.26;48.65
20160;BME280;50187;50.492;12.134;2022-09-09T06:32:25;97259.28;;;23.25;48.69
20160;BME280;50187;50.492;12.134;2022-09-09T06:35:12;97253.88;;;23.25;48.71
20160;BME280;50187;50.492;12.134;2022-09-09T06:37:58;97264.72;;;23.25;48.65
20160;BME280;50187;50.492;12.134;2022-09-09T06:40:51;97253.88;;;23.25;48.44
20160;BME280;50187;50.492;12.134;2022-09-09T06:43:36;97253.88;;;23.25;48.63
20160;BME280;50187;50.492;12.134;2022-09-09T06:46:24;97258.44;;;23.25;48.43
20160;BME280;50187;50.492;12.134;2022-09-09T06:49:13;97265.75;;;23.24;48.46
20160;BME280;50187;50.492;12.134;2022-09-09T06:51:59;97259.47;;;23.24;48.38
20160;BME280;50187;50.492;12.134;2022-09-09T06:54:46;97260.97;;;23.26;48.52
20160;BME280;50187;50.492;12.134;2022-09-09T06:57:33;97260.97;;;23.26;48.62
20160;BME280;50187;50.492;12.134;2022-09-09T07:00:26;97263.88;;;23.25;48.55
20160;BME280;50187;50.492;12.134;2022-09-09T07:03:11;97260.50;;;23.23;48.41
20160;BME280;50187;50.492;12.134;2022-09-09T07:05:57;97262.84;;;23.26;48.44
20160;BME280;50187;50.492;12.134;2022-09-09T07:09:06;97266.38;;;23.26;48.42
20160;BME280;50187;50.492;12.134;2022-09-09T07:11:52;97268.06;;;23.27;48.51
20160;BME280;50187;50.492;12.134;2022-09-09T07:14:41;97263.47;;;23.28;48.60
20160;BME280;50187;50.492;12.134;2022-09-09T07:17:27;97264.34;;;23.28;48.56
20160;BME280;50187;50.492;12.134;2022-09-09T07:20:16;97255.09;;;23.23;48.62
20160;BME280;50187;50.492;12.134;2022-09-09T07:23:02;97250.56;;;23.30;48.46
20160;BME280;50187;50.492;12.134;2022-09-09T07:25:47;97253.09;;;23.31;48.54
20160;BME280;50187;50.492;12.134;2022-09-09T07:28:35;97248.50;;;23.32;48.37
20160;BME280;50187;50.492;12.134;2022-09-09T07:31:32;97251.28;;;23.39;48.34
20160;BME280;50187;50.492;12.134;2022-09-09T07:34:19;97246.19;;;23.50;48.06
20160;BME280;50187;50.492;12.134;2022-09-09T07:37:05;97252.50;;;23.51;48.03
20160;BME280;50187;50.492;12.134;2022-09-09T07:39:50;97256.69;;;23.54;48.04
20160;BME280;50187;50.492;12.134;2022-09-09T07:42:37;97257.53;;;23.54;48.24
20160;BME280;50187;50.492;12.134;2022-09-09T07:45:22;97257.53;;;23.54;48.22
20160;BME280;50187;50.492;12.134;2022-09-09T07:48:08;97264.66;;;23.55;47.89
20160;BME280;50187;50.492;12.134;2022-09-09T07:51:07;97263.78;;;23.55;47.76
20160;BME280;50187;50.492;12.134;2022-09-09T07:53:55;97270.06;;;23.55;47.80
20160;BME280;50187;50.492;12.134;2022-09-09T07:56:42;97271.09;;;23.54;47.93
20160;BME280;50187;50.492;12.134;2022-09-09T07:59:30;97264.66;;;23.55;47.65
20160;BME280;50187;50.492;12.134;2022-09-09T08:02:15;97277.56;;;23.53;47.86
20160;BME280;50187;50.492;12.134;2022-09-09T08:05:02;97276.72;;;23.53;47.57
20160;BME280;50187;50.492;12.134;2022-09-09T08:07:47;97266.44;;;23.48;47.53
20160;BME280;50187;50.492;12.134;2022-09-09T08:10:33;97280.28;;;23.53;47.51
20160;BME280;50187;50.492;12.134;2022-09-09T08:13:19;97280.47;;;23.52;47.55
20160;BME280;50187;50.492;12.134;2022-09-09T08:16:17;97296.13;;;23.49;47.71
20160;BME280;50187;50.492;12.134;2022-09-09T08:19:04;97283.91;;;23.60;47.42
20160;BME280;50187;50.492;12.134;2022-09-09T08:21:50;97282.09;;;23.67;47.43
20160;BME280;50187;50.492;12.134;2022-09-09T08:24:35;97283.47;;;23.78;47.16
20160;BME280;50187;50.492;12.134;2022-09-09T08:27:21;97284.22;;;23.87;46.92
20160;BME280;50187;50.492;12.134;2022-09-09T08:30:06;97285.97;;;23.95;47.13
20160;BME280;50187;50.492;12.134;2022-09-09T08:32:52;97289.59;;;24.02;46.88
20160;BME280;50187;50.492;12.134;2022-09-09T08:35:38;97276.47;;;24.06;46.71
20160;BME280;50187;50.492;12.134;2022-09-09T08:38:24;97278.00;;;24.15;46.57
20160;BME280;50187;50.492;12.134;2022-09-09T08:41:14;97282.66;;;24.21;46.55
20160;BME280;50187;50.492;12.134;2022-09-09T08:50:29;97290.78;;;24.43;46.11
20160;BME280;50187;50.492;12.134;2022-09-09T08:53:28;97279.31;;;24.47;46.04
20160;BME280;50187;50.492;12.134;2022-09-09T08:56:25;97283.13;;;24.53;45.88
20160;BME280;50187;50.492;12.134;2022-09-09T08:59:17;97283.19;;;24.60;45.95
20160;BME280;50187;50.492;12.134;2022-09-09T09:05:23;97279.09;;;24.71;45.74
20160;BME280;50187;50.492;12.134;2022-09-09T09:08:30;97284.78;;;24.76;45.55
20160;BME280;50187;50.492;12.134;2022-09-09T09:11:18;97281.44;;;24.80;45.37
20160;BME280;50187;50.492;12.134;2022-09-09T09:14:24;97289.66;;;24.87;45.39
20160;BME280;50187;50.492;12.134;2022-09-09T09:17:18;97286.53;;;24.90;45.48
20160;BME280;50187;50.492;12.134;2022-09-09T09:20:12;97275.84;;;24.89;45.36
20160;BME280;50187;50.492;12.134;2022-09-09T09:23:00;97274.38;;;24.86;45.60
20160;BME280;50187;50.492;12.134;2022-09-09T09:25:48;97307.22;;;24.84;45.46
20160;BME280;50187;50.492;12.134;2022-09-09T09:28:36;97279.78;;;24.79;45.55
20160;BME280;50187;50.492;12.134;2022-09-09T09:31:28;97280.38;;;24.75;45.66
20160;BME280;50187;50.492;12.134;2022-09-09T09:34:14;97283.25;;;24.66;45.85
20160;BME280;50187;50.492;12.134;2022-09-09T09:37:00;97277.75;;;24.60;45.84
20160;BME280;50187;50.492;12.134;2022-09-09T09:39:51;97291.53;;;24.58;46.02
20160;BME280;50187;50.492;12.134;2022-09-09T09:42:54;97287.06;;;24.50;46.20
20160;BME280;50187;50.492;12.134;2022-09-09T09:45:43;97287.03;;;24.44;46.31
20160;BME280;50187;50.492;12.134;2022-09-09T09:48:59;97297.25;;;24.42;46.31
20160;BME280;50187;50.492;12.134;2022-09-09T09:51:47;97289.94;;;24.42;46.58
20160;BME280;50187;50.492;12.134;2022-09-09T09:54:37;97282.22;;;24.46;46.21
20160;BME280;50187;50.492;12.134;2022-09-09T09:57:28;97289.38;;;24.53;46.12
20160;BME280;50187;50.492;12.134;2022-09-09T10:00:22;97278.59;;;24.60;46.03
20160;BME280;50187;50.492;12.134;2022-09-09T10:06:15;97284.97;;;24.74;45.91
20160;BME280;50187;50.492;12.134;2022-09-09T10:09:01;97288.16;;;24.78;45.69
20160;BME280;50187;50.492;12.134;2022-09-09T10:12:16;97280.41;;;24.81;45.62
20160;BME280;50187;50.492;12.134;2022-09-09T10:18:30;97270.03;;;24.92;45.32
20160;BME280;50187;50.492;12.134;2022-09-09T10:21:46;97269.81;;;24.93;45.30
20160;BME280;50187;50.492;12.134;2022-09-09T10:27:49;97261.88;;;24.98;45.32
20160;BME280;50187;50.492;12.134;2022-09-09T10:30:58;97270.91;;;24.99;45.34
20160;BME280;50187;50.492;12.134;2022-09-09T10:34:11;97267.53;;;24.97;45.37
20160;BME280;50187;50.492;12.134;2022-09-09T10:36:59;97261.88;;;24.98;45.31
20160;BME280;50187;50.492;12.134;2022-09-09T10:39:45;97263.56;;;24.99;45.09
20160;BME280;50187;50.492;12.134;2022-09-09T10:42:31;97251.44;;;25.02;45.10
20160;BME280;50187;50.492;12.134;2022-09-09T10:45:35;97257.09;;;25.07;45.24
20160;BME280;50187;50.492;12.134;2022-09-09T10:55:10;97260.31;;;25.17;44.98
20160;BME280;50187;50.492;12.134;2022-09-09T10:57:58;97263.66;;;25.19;44.76
20160;BME280;50187;50.492;12.134;2022-09-09T11:00:48;97268.28;;;25.19;44.79
20160;BME280;50187;50.492;12.134;2022-09-09T11:03:42;97261.13;;;25.18;44.88
20160;BME280;50187;50.492;12.134;2022-09-09T11:06:39;97261.31;;;25.10;44.96
20160;BME280;50187;50.492;12.134;2022-09-09T11:09:33;97256.53;;;25.18;45.12
20160;BME280;50187;50.492;12.134;2022-09-09T11:12:23;97254.66;;;25.19;44.84
20160;BME280;50187;50.492;12.134;2022-09-09T11:15:17;97251.94;;;25.19;44.86
20160;BME280;50187;50.492;12.134;2022-09-09T11:18:09;97246.09;;;25.22;44.94
20160;BME280;50187;50.492;12.134;2022-09-09T11:21:00;97250.28;;;25.25;44.93
20160;BME280;50187;50.492;12.134;2022-09-09T11:23:52;97251.34;;;25.30;44.70
20160;BME280;50187;50.492;12.134;2022-09-09T11:26:51;97254.91;;;25.31;44.61
20160;BME280;50187;50.492;12.134;2022-09-09T11:36:22;97244.09;;;25.44;44.49
20160;BME280;50187;50.492;12.134;2022-09-09T11:44:56;97242.25;;;25.51;44.34
20160;BME280;50187;50.492;12.134;2022-09-09T11:47:51;97237.63;;;25.52;44.31
20160;BME280;50187;50.492;12.134;2022-09-09T11:50:37;97244.75;;;25.53;44.31
20160;BME280;50187;50.492;12.134;2022-09-09T11:53:23;97248.09;;;25.55;44.19
20160;BME280;50187;50.492;12.134;2022-09-09T11:56:13;97252.50;;;25.56;44.11
20160;BME280;50187;50.492;12.134;2022-09-09T11:59:03;97239.75;;;25.57;44.21
20160;BME280;50187;50.492;12.134;2022-09-09T12:02:03;97242.66;;;25.55;44.15
20160;BME280;50187;50.492;12.134;2022-09-09T12:05:11;97233.44;;;25.56;44.23
20160;BME280;50187;50.492;12.134;2022-09-09T12:07:58;97231.75;;;25.55;44.20
20160;BME280;50187;50.492;12.134;2022-09-09T12:10:53;97220.25;;;25.53;44.40
20160;BME280;50187;50.492;12.134;2022-09-09T12:13:38;97215.00;;;25.51;44.41
20160;BME280;50187;50.492;12.134;2022-09-09T12:16:35;97213.31;;;25.50;44.20
20160;BME280;50187;50.492;12.134;2022-09-09T12:19:22;97204.09;;;25.45;44.43
20160;BME280;50187;50.492;12.134;2022-09-09T12:22:22;97192.16;;;25.46;44.49
20160;BME280;50187;50.492;12.134;2022-09-09T12:31:32;97200.75;;;25.43;44.66
20160;BME280;50187;50.492;12.134;2022-09-09T12:34:33;97205.53;;;25.41;44.79
20160;BME280;50187;50.492;12.134;2022-09-09T12:37:36;97197.19;;;25.35;44.55
20160;BME280;50187;50.492;12.134;2022-09-09T12:40:28;97196.09;;;25.36;44.79
20160;BME280;50187;50.492;12.134;2022-09-09T12:43:18;97201.56;;;25.36;44.55
20160;BME280;50187;50.492;12.134;2022-09-09T12:46:08;97192.75;;;25.34;44.58
20160;BME280;50187;50.492;12.134;2022-09-09T12:49:00;97194.84;;;25.32;44.78
20160;BME280;50187;50.492;12.134;2022-09-09T12:51:45;97183.28;;;25.30;44.92
20160;BME280;50187;50.492;12.134;2022-09-09T12:54:30;97189.78;;;25.29;44.67
20160;BME280;50187;50.492;12.134;2022-09-09T12:57:15;97192.72;;;25.28;44.98
20160;BME280;50187;50.492;12.134;2022-09-09T13:00:06;97194.81;;;25.26;44.86
20160;BME280;50187;50.492;12.134;2022-09-09T13:02:58;97209.66;;;25.23;45.02
20160;BME280;50187;50.492;12.134;2022-09-09T13:05:43;97196.84;;;25.17;44.87
20160;BME280;50187;50.492;12.134;2022-09-09T13:08:29;97194.13;;;25.17;45.09
20160;BME280;50187;50.492;12.134;2022-09-09T13:11:18;97204.41;;;25.15;45.13
20160;BME280;50187;50.492;12.134;2022-09-09T13:14:06;97201.03;;;25.13;45.07
20160;BME280;50187;50.492;12.134;2022-09-09T13:16:56;97193.28;;;25.10;45.13
20160;BME280;50187;50.492;12.134;2022-09-09T13:19:44;97189.72;;;25.09;45.30
20160;BME280;50187;50.492;12.134;2022-09-09T13:22:39;97194.72;;;25.06;45.39
20160;BME280;50187;50.492;12.134;2022-09-09T13:25:28;97188.00;;;25.01;45.28
20160;BME280;50187;50.492;12.134;2022-09-09T13:28:22;97179.84;;;24.95;45.18
20160;BME280;50187;50.492;12.134;2022-09-09T13:31:24;97175.63;;;24.92;45.46
20160;BME280;50187;50.492;12.134;2022-09-09T13:34:13;97182.72;;;24.86;45.16
20160;BME280;50187;50.492;12.134;2022-09-09T13:37:02;97177.06;;;24.88;44.99
20160;BME280;50187;50.492;12.134;2022-09-09T13:39:52;97177.69;;;24.83;45.06
20160;BME280;50187;50.492;12.134;2022-09-09T13:43:00;97161.16;;;24.85;44.85
20160;BME280;50187;50.492;12.134;2022-09-09T13:46:04;97165.31;;;24.81;45.13
20160;BME280;50187;50.492;12.134;2022-09-09T13:49:20;97164.69;;;24.79;45.09
20160;BME280;50187;50.492;12.134;2022-09-09T13:52:15;97173.25;;;24.76;44.98
20160;BME280;50187;50.492;12.134;2022-09-09T13:55:09;97160.66;;;24.68;44.88
20160;BME280;50187;50.492;12.134;2022-09-09T14:00:47;97168.09;;;24.59;44.84
20160;BME280;50187;50.492;12.134;2022-09-09T14:03:32;97173.94;;;24.56;44.70
20160;BME280;50187;50.492;12.134;2022-09-09T14:06:23;97169.94;;;24.52;44.68
20160;BME280;50187;50.492;12.134;2022-09-09T14:09:14;97159.69;;;24.47;44.89
20160;BME280;50187;50.492;12.134;2022-09-09T14:12:04;97160.91;;;24.45;44.84
20160;BME280;50187;50.492;12.134;2022-09-09T14:14:57;97167.59;;;24.42;44.61
20160;BME280;50187;50.492;12.134;2022-09-09T14:17:45;97179.06;;;24.38;44.56
20160;BME280;50187;50.492;12.134;2022-09-09T14:20:32;97176.75;;;24.34;44.67
20160;BME280;50187;50.492;12.134;2022-09-09T14:23:17;97195.16;;;24.32;44.74
20160;BME280;50187;50.492;12.134;2022-09-09T14:26:06;97212.50;;;24.31;44.89
20160;BME280;50187;50.492;12.134;2022-09-09T14:28:51;97226.03;;;24.25;44.88
20160;BME280;50187;50.492;12.134;2022-09-09T14:31:40;97241.31;;;24.26;45.07
20160;BME280;50187;50.492;12.134;2022-09-09T14:34:26;97245.06;;;24.25;45.26
20160;BME280;50187;50.492;12.134;2022-09-09T14:37:11;97261.56;;;24.23;45.18
20160;BME280;50187;50.492;12.134;2022-09-09T14:39:57;97269.91;;;24.22;45.36
20160;BME280;50187;50.492;12.134;2022-09-09T14:42:42;97253.81;;;24.20;45.44
20160;BME280;50187;50.492;12.134;2022-09-09T14:45:28;97243.97;;;24.19;45.32
20160;BME280;50187;50.492;12.134;2022-09-09T14:48:14;97241.25;;;24.19;45.48
20160;BME280;50187;50.492;12.134;2022-09-09T14:51:21;97238.53;;;24.19;45.58
20160;BME280;50187;50.492;12.134;2022-09-09T14:54:07;97250.22;;;24.20;45.60
20160;BME280;50187;50.492;12.134;2022-09-09T14:56:53;97251.50;;;24.17;45.75
20160;BME280;50187;50.492;12.134;2022-09-09T14:59:38;97259.81;;;24.15;45.99
20160;BME280;50187;50.492;12.134;2022-09-09T15:02:23;97258.97;;;24.15;45.81
20160;BME280;50187;50.492;12.134;2022-09-09T15:05:09;97251.84;;;24.14;45.96
20160;BME280;50187;50.492;12.134;2022-09-09T15:07:54;97256.25;;;24.15;45.88
20160;BME280;50187;50.492;12.134;2022-09-09T15:10:39;97256.47;;;24.13;45.88
20160;BME280;50187;50.492;12.134;2022-09-09T15:13:24;97261.91;;;24.13;45.84
20160;BME280;50187;50.492;12.134;2022-09-09T15:16:16;97249.94;;;24.08;46.03
20160;BME280;50187;50.492;12.134;2022-09-09T15:19:02;97251.44;;;24.10;45.93
20160;BME280;50187;50.492;12.134;2022-09-09T15:21:47;97240.56;;;24.10;46.05
20160;BME280;50187;50.492;12.134;2022-09-09T15:24:33;97239.47;;;24.05;46.69
20160;BME280;50187;50.492;12.134;2022-09-09T15:27:18;97243.47;;;24.09;47.08
20160;BME280;50187;50.492;12.134;2022-09-09T15:30:04;97235.31;;;24.09;46.60
20160;BME280;50187;50.492;12.134;2022-09-09T15:32:49;97241.78;;;24.08;46.60
20160;BME280;50187;50.492;12.134;2022-09-09T15:35:34;97250.97;;;24.07;46.67
20160;BME280;50187;50.492;12.134;2022-09-09T15:38:19;97248.25;;;24.07;46.58
20160;BME280;50187;50.492;12.134;2022-09-09T15:41:04;97232.53;;;24.02;46.61
20160;BME280;50187;50.492;12.134;2022-09-09T15:43:52;97239.25;;;24.06;46.85
20160;BME280;50187;50.492;12.134;2022-09-09T15:46:38;97247.63;;;24.05;46.87
20160;BME280;50187;50.492;12.134;2022-09-09T15:49:25;97242.19;;;24.05;46.89
20160;BME280;50187;50.492;12.134;2022-09-09T15:52:11;97245.72;;;24.05;46.80
20160;BME280;50187;50.492;12.134;2022-09-09T15:54:56;97241.31;;;24.04;46.89
20160;BME280;50187;50.492;12.134;2022-09-09T15:57:41;97240.50;;;24.04;46.64